createdAt,value
2017-01-31T00:00:22.349Z,4.62
2017-01-31T00:01:02.858Z,4.66
2017-01-31T00:01:43.299Z,4.6
2017-01-31T00:02:23.789Z,4.67
2017-01-31T00:03:04.296Z,4.67
2017-01-31T00:03:45.646Z,4.62
2017-01-31T00:04:26.181Z,4.58
2017-01-31T00:05:06.698Z,4.67
2017-01-31T00:05:47.164Z,4.6
2017-01-31T00:06:27.697Z,4.6
2017-01-31T00:07:08.171Z,4.66
2017-01-31T00:07:48.656Z,4.66
2017-01-31T00:08:29.152Z,4.62
2017-01-31T00:09:09.658Z,4.74
2017-01-31T00:09:50.111Z,4.62
2017-01-31T00:10:30.645Z,4.59
2017-01-31T00:11:11.095Z,4.59
2017-01-31T00:11:51.562Z,4.6
2017-01-31T00:12:32.057Z,4.6
2017-01-31T00:13:12.545Z,4.56
2017-01-31T00:13:53.034Z,4.56
2017-01-31T00:14:33.534Z,4.62
2017-01-31T00:15:14.009Z,4.58
2017-01-31T00:15:55.260Z,4.6
2017-01-31T00:16:35.769Z,4.66
2017-01-31T00:17:16.261Z,4.71
2017-01-31T00:17:56.690Z,4.6
2017-01-31T00:18:37.217Z,4.6
2017-01-31T00:19:17.701Z,4.59
2017-01-31T00:19:58.320Z,4.62
2017-01-31T00:20:38.720Z,4.6
2017-01-31T00:21:19.240Z,4.59
2017-01-31T00:21:59.727Z,4.63
2017-01-31T00:22:40.222Z,4.56
2017-01-31T00:23:20.784Z,4.68
2017-01-31T00:24:01.329Z,4.58
2017-01-31T00:24:41.849Z,4.56
2017-01-31T00:25:22.316Z,4.62
2017-01-31T00:26:03.434Z,4.62
2017-01-31T00:26:43.886Z,4.55
2017-01-31T00:27:24.915Z,4.62
2017-01-31T00:28:05.408Z,4.56
2017-01-31T00:28:45.956Z,4.56
2017-01-31T00:29:27.236Z,4.62
2017-01-31T00:30:07.739Z,4.62
2017-01-31T00:30:48.225Z,4.59
2017-01-31T00:31:28.882Z,4.63
2017-01-31T00:32:09.396Z,4.63
2017-01-31T00:32:49.847Z,4.6
2017-01-31T00:33:30.388Z,4.6
2017-01-31T00:34:10.824Z,4.7
2017-01-31T00:34:52.177Z,4.71
2017-01-31T00:35:32.659Z,4.58
2017-01-31T00:36:13.129Z,4.73
2017-01-31T00:36:53.613Z,4.71
2017-01-31T00:37:34.116Z,4.6
2017-01-31T00:38:14.632Z,4.66
2017-01-31T00:38:55.104Z,4.7
2017-01-31T00:39:35.600Z,4.7
2017-01-31T00:40:16.098Z,4.67
2017-01-31T00:40:56.573Z,4.62
2017-01-31T00:41:37.115Z,4.62
2017-01-31T00:42:17.602Z,4.71
2017-01-31T00:42:58.051Z,4.62
2017-01-31T00:43:38.542Z,4.62
2017-01-31T00:44:19.050Z,4.68
2017-01-31T00:45:00.349Z,4.67
2017-01-31T00:45:43.399Z,4.56
2017-01-31T00:46:23.842Z,4.63
2017-01-31T00:47:04.333Z,4.56
2017-01-31T00:47:44.822Z,4.63
2017-01-31T00:48:25.338Z,4.62
2017-01-31T00:49:05.848Z,4.6
2017-01-31T00:49:46.328Z,4.59
2017-01-31T00:50:26.828Z,4.6
2017-01-31T00:51:07.307Z,4.62
2017-01-31T00:51:47.802Z,4.62
2017-01-31T00:52:28.320Z,4.63
2017-01-31T00:53:08.817Z,4.67
2017-01-31T00:53:49.310Z,4.74
2017-01-31T00:54:29.790Z,4.62
2017-01-31T00:55:10.286Z,4.66
2017-01-31T00:55:50.814Z,4.6
2017-01-31T00:56:31.310Z,4.68
2017-01-31T00:57:11.849Z,4.7
2017-01-31T00:57:52.338Z,4.68
2017-01-31T00:58:33.352Z,4.59
2017-01-31T00:59:13.873Z,4.77
2017-01-31T00:59:54.352Z,4.67
2017-01-31T01:00:34.831Z,4.71
2017-01-31T01:01:15.369Z,4.6
2017-01-31T01:01:55.848Z,4.59
2017-01-31T01:02:36.365Z,4.67
2017-01-31T01:03:16.853Z,4.58
2017-01-31T01:03:57.343Z,4.66
2017-01-31T01:04:37.880Z,4.7
2017-01-31T01:05:18.356Z,4.71
2017-01-31T01:05:58.863Z,4.67
2017-01-31T01:06:39.343Z,4.7
2017-01-31T01:07:19.823Z,4.73
2017-01-31T01:08:00.357Z,4.71
2017-01-31T01:08:40.811Z,4.67
2017-01-31T01:09:21.324Z,4.68
2017-01-31T01:10:02.323Z,4.6
2017-01-31T01:10:42.781Z,4.71
2017-01-31T01:11:23.298Z,4.6
2017-01-31T01:12:03.777Z,4.63
2017-01-31T01:12:44.317Z,4.68
2017-01-31T01:13:24.775Z,4.66
2017-01-31T01:14:05.313Z,4.62
2017-01-31T01:14:46.757Z,4.63
2017-01-31T01:15:27.265Z,4.62
2017-01-31T01:16:07.759Z,4.6
2017-01-31T01:16:48.247Z,4.62
2017-01-31T01:17:28.932Z,4.56
2017-01-31T01:18:09.388Z,4.56
2017-01-31T01:18:49.898Z,4.59
2017-01-31T01:19:30.391Z,4.56
2017-01-31T01:20:10.877Z,4.6
2017-01-31T01:20:51.388Z,4.62
2017-01-31T01:21:31.873Z,4.58
2017-01-31T01:22:12.848Z,4.55
2017-01-31T01:22:53.337Z,4.6
2017-01-31T01:23:33.838Z,4.58
2017-01-31T01:24:14.314Z,4.59
2017-01-31T01:24:54.834Z,4.66
2017-01-31T01:25:35.302Z,4.63
2017-01-31T01:26:15.806Z,4.59
2017-01-31T01:26:57.177Z,4.6
2017-01-31T01:27:37.704Z,4.6
2017-01-31T01:28:18.204Z,4.62
2017-01-31T01:28:58.694Z,4.62
2017-01-31T01:29:39.186Z,4.59
2017-01-31T01:30:19.718Z,4.66
2017-01-31T01:31:00.191Z,4.6
2017-01-31T01:31:40.692Z,4.6
2017-01-31T01:32:21.213Z,4.68
2017-01-31T01:33:01.687Z,4.59
2017-01-31T01:33:42.184Z,4.62
2017-01-31T01:34:22.699Z,4.67
2017-01-31T01:35:03.217Z,4.67
2017-01-31T01:35:43.745Z,4.66
2017-01-31T01:36:24.267Z,4.68
2017-01-31T01:37:04.735Z,4.73
2017-01-31T01:37:45.273Z,4.73
2017-01-31T01:38:25.792Z,4.63
2017-01-31T01:39:06.250Z,4.67
2017-01-31T01:39:47.440Z,4.6
2017-01-31T01:40:27.928Z,4.6
2017-01-31T01:41:08.468Z,4.59
2017-01-31T01:41:49.761Z,4.6
2017-01-31T01:42:30.245Z,4.56
2017-01-31T01:43:10.766Z,4.59
2017-01-31T01:43:51.244Z,4.58
2017-01-31T01:44:31.728Z,4.59
2017-01-31T01:45:12.203Z,4.62
2017-01-31T01:45:52.703Z,4.59
2017-01-31T01:46:33.209Z,4.62
2017-01-31T01:47:13.681Z,4.58
2017-01-31T01:47:54.164Z,4.56
2017-01-31T01:48:34.666Z,4.6
2017-01-31T01:49:15.154Z,4.63
2017-01-31T01:49:55.651Z,4.6
2017-01-31T01:50:36.135Z,4.6
2017-01-31T01:51:16.616Z,4.71
2017-01-31T01:51:57.139Z,4.6
2017-01-31T01:52:37.619Z,4.55
2017-01-31T01:53:18.115Z,4.58
2017-01-31T01:53:58.605Z,4.58
2017-01-31T01:54:39.084Z,4.58
2017-01-31T01:55:19.599Z,4.59
2017-01-31T01:57:12.714Z,4.6
2017-01-31T01:57:53.260Z,4.68
2017-01-31T01:58:34.600Z,4.71
2017-01-31T01:59:15.093Z,4.73
2017-01-31T01:59:55.606Z,4.67
2017-01-31T02:00:36.070Z,4.71
2017-01-31T02:01:16.591Z,4.66
2017-01-31T02:01:57.047Z,4.71
2017-01-31T02:02:37.530Z,4.63
2017-01-31T02:03:18.034Z,4.62
2017-01-31T02:03:58.543Z,4.59
2017-01-31T02:04:39.046Z,4.68
2017-01-31T02:05:19.515Z,4.62
2017-01-31T02:06:00.010Z,4.63
2017-01-31T02:06:40.499Z,4.6
2017-01-31T02:07:20.999Z,4.59
2017-01-31T02:08:01.521Z,4.62
2017-01-31T02:08:41.988Z,4.59
2017-01-31T02:09:22.481Z,4.63
2017-01-31T02:10:02.963Z,4.6
2017-01-31T02:10:43.495Z,4.62
2017-01-31T02:11:24.011Z,4.62
2017-01-31T02:12:04.506Z,4.59
2017-01-31T02:12:45.670Z,4.6
2017-01-31T02:13:26.162Z,4.6
2017-01-31T02:15:16.166Z,4.59
2017-01-31T02:15:56.550Z,4.53
2017-01-31T02:16:37.024Z,4.53
2017-01-31T02:17:17.514Z,4.55
2017-01-31T02:17:58.007Z,4.62
2017-01-31T02:18:38.498Z,4.52
2017-01-31T02:19:19.007Z,4.52
2017-01-31T02:19:59.453Z,4.49
2017-01-31T02:20:39.939Z,4.5
2017-01-31T02:21:20.423Z,4.53
2017-01-31T02:22:00.942Z,4.44
2017-01-31T02:22:41.378Z,4.42
2017-01-31T02:23:22.645Z,4.48
2017-01-31T02:24:03.168Z,4.53
2017-01-31T02:24:43.635Z,4.59
2017-01-31T02:25:24.125Z,4.52
2017-01-31T02:26:04.644Z,4.6
2017-01-31T02:26:45.136Z,4.48
2017-01-31T02:27:25.673Z,4.48
2017-01-31T02:28:06.173Z,4.45
2017-01-31T02:28:46.677Z,4.48
2017-01-31T02:29:27.236Z,4.45
2017-01-31T02:30:07.694Z,4.48
2017-01-31T02:30:48.229Z,4.44
2017-01-31T02:31:29.370Z,4.56
2017-01-31T02:32:09.849Z,4.55
2017-01-31T02:32:50.346Z,4.55
2017-01-31T02:33:30.835Z,4.6
2017-01-31T02:34:11.345Z,4.59
2017-01-31T02:34:51.878Z,4.59
2017-01-31T02:35:32.381Z,4.5
2017-01-31T02:36:12.913Z,4.49
2017-01-31T02:36:53.409Z,4.45
2017-01-31T02:37:34.392Z,4.45
2017-01-31T02:38:14.915Z,4.49
2017-01-31T02:38:55.412Z,4.5
2017-01-31T02:39:36.554Z,4.49
2017-01-31T02:40:17.059Z,4.44
2017-01-31T02:40:57.559Z,4.44
2017-01-31T02:41:38.598Z,4.52
2017-01-31T02:42:19.077Z,4.55
2017-01-31T02:42:59.574Z,4.52
2017-01-31T02:43:40.056Z,4.53
2017-01-31T02:44:20.539Z,4.53
2017-01-31T02:45:01.058Z,4.58
2017-01-31T02:45:41.596Z,4.49
2017-01-31T02:46:22.121Z,4.5
2017-01-31T02:47:02.589Z,4.55
2017-01-31T02:47:43.093Z,4.53
2017-01-31T02:48:23.615Z,4.59
2017-01-31T02:49:04.057Z,4.55
2017-01-31T02:49:44.517Z,4.6
2017-01-31T02:50:25.028Z,4.56
2017-01-31T02:51:05.525Z,4.6
2017-01-31T02:51:45.989Z,4.6
2017-01-31T02:52:26.528Z,4.55
2017-01-31T02:53:06.998Z,4.56
2017-01-31T02:53:47.493Z,4.56
2017-01-31T02:54:28.009Z,4.53
2017-01-31T02:55:08.526Z,4.55
2017-01-31T02:55:49.881Z,4.53
2017-01-31T02:56:30.374Z,4.53
2017-01-31T02:57:10.880Z,4.6
2017-01-31T02:57:51.373Z,4.63
2017-01-31T02:58:31.846Z,4.6
2017-01-31T02:59:12.369Z,4.56
2017-01-31T02:59:53.788Z,4.67
2017-01-31T03:00:35.126Z,4.59
2017-01-31T03:01:15.610Z,4.58
2017-01-31T03:01:56.127Z,4.59
2017-01-31T03:02:36.626Z,4.56
2017-01-31T03:03:17.161Z,4.62
2017-01-31T03:03:58.883Z,4.62
2017-01-31T03:04:39.401Z,4.59
2017-01-31T03:05:19.845Z,4.6
2017-01-31T03:06:00.336Z,4.68
2017-01-31T03:06:40.844Z,4.62
2017-01-31T03:07:21.376Z,4.63
2017-01-31T03:08:01.868Z,4.6
2017-01-31T03:08:42.369Z,4.7
2017-01-31T03:09:23.782Z,4.63
2017-01-31T03:10:05.066Z,4.59
2017-01-31T03:10:45.547Z,4.58
2017-01-31T03:11:26.044Z,4.56
2017-01-31T03:12:06.535Z,4.56
2017-01-31T03:12:47.015Z,4.53
2017-01-31T03:13:28.285Z,4.59
2017-01-31T03:14:08.769Z,4.59
2017-01-31T03:14:49.263Z,4.6
2017-01-31T03:15:29.731Z,4.63
2017-01-31T03:16:10.225Z,4.53
2017-01-31T03:16:50.723Z,4.62
2017-01-31T03:17:31.208Z,4.59
2017-01-31T03:18:11.728Z,4.62
2017-01-31T03:18:52.205Z,4.63
2017-01-31T03:19:32.718Z,4.55
2017-01-31T03:20:13.209Z,4.6
2017-01-31T03:20:53.695Z,4.63
2017-01-31T03:21:34.173Z,4.56
2017-01-31T03:22:14.687Z,4.56
2017-01-31T03:22:55.146Z,4.58
2017-01-31T03:23:36.258Z,4.6
2017-01-31T03:24:17.549Z,4.59
2017-01-31T03:24:58.062Z,4.66
2017-01-31T03:25:38.601Z,4.59
2017-01-31T03:26:19.092Z,4.62
2017-01-31T03:26:59.604Z,4.6
2017-01-31T03:27:40.092Z,4.55
2017-01-31T03:28:20.549Z,4.59
2017-01-31T03:29:01.066Z,4.6
2017-01-31T03:29:42.463Z,4.58
2017-01-31T03:30:23.771Z,4.56
2017-01-31T03:31:04.253Z,4.59
2017-01-31T03:31:44.758Z,4.56
2017-01-31T03:32:25.257Z,4.59
2017-01-31T03:33:06.469Z,4.6
2017-01-31T03:33:46.933Z,4.58
2017-01-31T03:34:27.459Z,4.71
2017-01-31T03:35:07.921Z,4.58
2017-01-31T03:35:48.425Z,4.59
2017-01-31T03:36:28.916Z,4.59
2017-01-31T03:37:09.410Z,4.62
2017-01-31T03:37:49.887Z,4.56
2017-01-31T03:38:30.352Z,4.59
2017-01-31T03:39:10.882Z,4.62
2017-01-31T03:39:51.375Z,4.56
2017-01-31T03:40:31.848Z,4.71
2017-01-31T03:41:12.332Z,4.56
2017-01-31T03:41:52.836Z,4.63
2017-01-31T03:42:33.317Z,4.62
2017-01-31T03:43:13.797Z,4.6
2017-01-31T03:43:54.281Z,4.71
2017-01-31T03:44:34.755Z,4.71
2017-01-31T03:45:15.970Z,4.71
2017-01-31T03:45:56.456Z,4.68
2017-01-31T03:46:36.939Z,4.6
2017-01-31T03:47:17.466Z,4.67
2017-01-31T03:47:58.016Z,4.7
2017-01-31T03:48:39.154Z,4.67
2017-01-31T03:49:19.666Z,4.62
2017-01-31T03:50:00.188Z,4.67
2017-01-31T03:50:40.661Z,4.67
2017-01-31T03:51:21.980Z,4.68
2017-01-31T03:52:02.441Z,4.66
2017-01-31T03:52:43.540Z,4.7
2017-01-31T03:53:24.975Z,4.7
2017-01-31T03:54:05.440Z,4.66
2017-01-31T03:54:45.985Z,4.73
2017-01-31T03:55:26.461Z,4.67
2017-01-31T03:56:06.981Z,4.56
2017-01-31T03:56:47.445Z,4.6
2017-01-31T03:57:27.954Z,4.68
2017-01-31T03:58:08.420Z,4.6
2017-01-31T03:58:48.898Z,4.63
2017-01-31T03:59:29.377Z,4.66
2017-01-31T04:00:09.894Z,4.67
2017-01-31T04:00:50.350Z,4.7
2017-01-31T04:01:30.870Z,4.73
2017-01-31T04:02:12.306Z,4.62
2017-01-31T04:02:52.798Z,4.7
2017-01-31T04:03:33.266Z,4.63
2017-01-31T04:04:13.788Z,4.62
2017-01-31T04:04:54.311Z,4.66
2017-01-31T04:05:34.783Z,4.7
2017-01-31T04:06:15.258Z,4.7
2017-01-31T04:06:55.839Z,4.63
2017-01-31T04:07:36.347Z,4.68
2017-01-31T04:08:16.813Z,4.7
2017-01-31T04:08:57.281Z,4.7
2017-01-31T04:09:37.782Z,4.63
2017-01-31T04:10:18.307Z,4.63
2017-01-31T04:10:58.869Z,4.66
2017-01-31T04:11:39.344Z,4.71
2017-01-31T04:12:19.829Z,4.71
2017-01-31T04:13:00.337Z,4.73
2017-01-31T04:13:40.911Z,4.73
2017-01-31T04:14:21.391Z,4.78
2017-01-31T04:15:02.660Z,4.7
2017-01-31T04:15:43.137Z,4.7
2017-01-31T04:16:23.668Z,4.71
2017-01-31T04:17:05.057Z,4.62
2017-01-31T04:17:45.507Z,4.73
2017-01-31T04:18:26.870Z,4.67
2017-01-31T04:19:07.374Z,4.68
2017-01-31T04:19:47.874Z,4.7
2017-01-31T04:20:29.073Z,4.63
2017-01-31T04:21:09.616Z,4.67
2017-01-31T04:21:50.104Z,4.73
2017-01-31T04:22:30.667Z,4.74
2017-01-31T04:23:11.174Z,4.7
2017-01-31T04:23:51.668Z,4.71
2017-01-31T04:24:32.163Z,4.66
2017-01-31T04:25:13.403Z,4.78
2017-01-31T04:28:22.385Z,4.73
2017-01-31T04:29:02.881Z,4.73
2017-01-31T04:29:43.362Z,4.7
2017-01-31T04:30:23.859Z,4.71
2017-01-31T04:31:04.360Z,4.6
2017-01-31T04:31:44.846Z,4.74
2017-01-31T04:32:25.365Z,4.74
2017-01-31T04:33:05.873Z,4.73
2017-01-31T04:33:46.358Z,4.73
2017-01-31T04:34:27.772Z,4.75
2017-01-31T04:35:09.997Z,4.74
2017-01-31T04:35:51.494Z,4.78
2017-01-31T04:36:31.954Z,4.74
2017-01-31T04:37:12.986Z,4.73
2017-01-31T04:37:54.287Z,4.73
2017-01-31T04:38:34.804Z,4.78
2017-01-31T04:39:15.282Z,4.82
2017-01-31T04:39:56.804Z,4.82
2017-01-31T04:40:37.859Z,4.75
2017-01-31T04:41:18.982Z,4.87
2017-01-31T04:41:59.488Z,4.78
2017-01-31T04:42:39.980Z,4.8
2017-01-31T04:43:20.556Z,4.74
2017-01-31T04:44:01.086Z,4.75
2017-01-31T04:44:41.538Z,4.77
2017-01-31T04:45:22.058Z,4.78
2017-01-31T04:46:02.526Z,4.78
2017-01-31T04:46:43.019Z,4.71
2017-01-31T04:47:23.542Z,4.68
2017-01-31T04:48:04.073Z,4.74
2017-01-31T04:48:44.525Z,4.67
2017-01-31T04:49:25.040Z,4.7
2017-01-31T04:50:05.494Z,4.73
2017-01-31T04:50:46.063Z,4.6
2017-01-31T04:51:26.527Z,4.73
2017-01-31T04:52:07.031Z,4.78
2017-01-31T04:52:47.528Z,4.78
2017-01-31T04:53:28.903Z,4.8
2017-01-31T04:54:09.398Z,4.8
2017-01-31T04:54:49.917Z,4.75
2017-01-31T04:55:31.064Z,4.77
2017-01-31T04:56:11.588Z,4.7
2017-01-31T04:56:52.953Z,4.73
2017-01-31T04:57:34.293Z,4.73
2017-01-31T04:58:14.758Z,4.73
2017-01-31T04:58:55.242Z,4.6
2017-01-31T04:59:35.737Z,4.74
2017-01-31T05:00:16.296Z,4.6
2017-01-31T05:00:56.765Z,4.73
2017-01-31T05:01:37.254Z,4.74
2017-01-31T05:02:17.784Z,4.7
2017-01-31T05:02:58.311Z,4.68
2017-01-31T05:03:38.805Z,4.71
2017-01-31T05:04:19.253Z,4.7
2017-01-31T05:04:59.769Z,4.66
2017-01-31T05:05:40.229Z,4.59
2017-01-31T05:06:20.718Z,4.67
2017-01-31T05:07:01.223Z,4.71
2017-01-31T05:07:41.731Z,4.68
2017-01-31T05:08:22.772Z,4.7
2017-01-31T05:09:03.252Z,4.66
2017-01-31T05:09:43.742Z,4.74
2017-01-31T05:10:24.268Z,4.63
2017-01-31T05:11:07.279Z,4.7
2017-01-31T05:11:49.275Z,4.71
2017-01-31T05:12:43.369Z,4.62
2017-01-31T05:13:26.309Z,4.66
2017-01-31T05:14:10.270Z,4.62
2017-01-31T05:14:52.295Z,4.68
2017-01-31T05:15:33.486Z,4.67
2017-01-31T05:17:24.231Z,4.7
2017-01-31T05:18:06.493Z,4.59
2017-01-31T05:18:47.673Z,4.74
2017-01-31T05:19:28.636Z,4.68
2017-01-31T05:20:09.796Z,4.73
2017-01-31T05:20:50.405Z,4.62
2017-01-31T05:21:30.912Z,4.71
2017-01-31T05:22:11.471Z,4.73
2017-01-31T05:22:51.970Z,4.7
2017-01-31T05:23:32.471Z,4.66
2017-01-31T05:25:27.569Z,4.68
2017-01-31T05:26:08.496Z,4.73
2017-01-31T05:26:49.172Z,4.71
2017-01-31T05:27:29.660Z,4.68
2017-01-31T05:28:10.196Z,4.7
2017-01-31T05:28:50.739Z,4.8
2017-01-31T05:29:33.041Z,4.71
2017-01-31T05:30:14.512Z,4.7
2017-01-31T05:30:56.774Z,4.71
2017-01-31T05:31:37.267Z,4.77
2017-01-31T05:32:19.666Z,4.73
2017-01-31T05:33:00.212Z,4.68
2017-01-31T05:33:40.717Z,4.67
2017-01-31T05:34:21.986Z,4.7
2017-01-31T05:35:02.462Z,4.77
2017-01-31T05:35:43.042Z,4.77
2017-01-31T05:36:23.555Z,4.7
2017-01-31T05:37:04.985Z,4.74
2017-01-31T05:37:45.452Z,4.75
2017-01-31T05:38:26.588Z,4.7
2017-01-31T05:39:07.105Z,4.68
2017-01-31T05:39:52.309Z,4.74
2017-01-31T05:40:33.839Z,4.7
2017-01-31T05:41:16.883Z,4.9
2017-01-31T05:41:57.355Z,4.89
2017-01-31T05:42:37.897Z,4.75
2017-01-31T05:43:19.036Z,4.73
2017-01-31T05:43:59.497Z,4.77
2017-01-31T05:44:40.021Z,4.73
2017-01-31T05:45:20.528Z,4.77
2017-01-31T05:46:01.071Z,4.8
2017-01-31T05:46:44.550Z,4.8
2017-01-31T05:47:25.935Z,4.71
2017-01-31T05:48:06.389Z,4.8
2017-01-31T05:48:46.858Z,4.78
2017-01-31T05:49:27.476Z,4.73
2017-01-31T05:50:08.991Z,4.82
2017-01-31T05:50:50.283Z,4.89
2017-01-31T05:51:31.637Z,4.8
2017-01-31T05:52:12.167Z,4.82
2017-01-31T05:52:52.716Z,4.84
2017-01-31T05:53:33.236Z,4.74
2017-01-31T05:54:16.506Z,4.84
2017-01-31T05:54:57.961Z,4.84
2017-01-31T05:55:39.363Z,4.77
2017-01-31T05:56:20.464Z,4.78
2017-01-31T05:57:00.981Z,4.73
2017-01-31T05:57:42.175Z,4.82
2017-01-31T05:58:23.559Z,4.82
2017-01-31T05:59:04.031Z,4.9
2017-01-31T05:59:47.811Z,4.93
2017-01-31T06:00:31.857Z,4.8
2017-01-31T06:01:13.100Z,4.84
2017-01-31T06:01:54.881Z,4.78
2017-01-31T06:03:56.324Z,4.75
2017-01-31T06:04:37.465Z,4.73
2017-01-31T06:05:19.386Z,4.75
2017-01-31T06:05:59.893Z,4.82
2017-01-31T06:06:40.974Z,4.82
2017-01-31T06:07:21.554Z,4.8
2017-01-31T06:08:05.391Z,4.8
2017-01-31T06:08:46.482Z,4.89
2017-01-31T06:09:26.931Z,4.84
2017-01-31T06:10:09.972Z,4.71
2017-01-31T06:10:52.051Z,4.8
2017-01-31T06:11:33.486Z,4.8
2017-01-31T06:12:15.507Z,4.73
2017-01-31T06:12:56.083Z,4.86
2017-01-31T06:13:38.860Z,4.75
2017-01-31T06:14:21.062Z,4.74
2017-01-31T06:15:04.041Z,4.78
2017-01-31T06:16:52.466Z,4.78
2017-01-31T06:17:35.347Z,4.78
2017-01-31T06:18:15.774Z,4.77
2017-01-31T06:18:56.288Z,4.73
2017-01-31T06:19:36.724Z,4.77
2017-01-31T06:20:20.956Z,4.62
2017-01-31T06:21:02.803Z,4.68
2017-01-31T06:21:43.294Z,4.75
2017-01-31T06:22:29.296Z,4.73
2017-01-31T06:23:12.383Z,4.62
2017-01-31T06:23:54.484Z,4.67
2017-01-31T06:24:34.939Z,4.6
2017-01-31T06:25:15.442Z,4.62
2017-01-31T06:25:59.308Z,4.55
2017-01-31T06:26:40.456Z,4.62
2017-01-31T06:27:20.995Z,4.62
2017-01-31T06:28:02.484Z,4.62
2017-01-31T06:28:42.984Z,4.53
2017-01-31T06:29:23.455Z,4.59
2017-01-31T06:30:04.664Z,4.63
2017-01-31T06:30:45.170Z,4.52
2017-01-31T06:31:26.490Z,4.59
2017-01-31T06:32:09.461Z,4.56
2017-01-31T06:32:49.942Z,4.6
2017-01-31T06:33:30.427Z,4.63
2017-01-31T06:34:11.571Z,4.56
2017-01-31T06:34:53.370Z,4.59
2017-01-31T06:35:34.592Z,4.52
2017-01-31T06:36:18.134Z,4.52
2017-01-31T06:37:01.961Z,4.44
2017-01-31T06:37:44.890Z,4.49
2017-01-31T06:38:26.990Z,4.42
2017-01-31T06:39:10.781Z,4.45
2017-01-31T06:39:51.982Z,4.5
2017-01-31T06:40:33.196Z,4.53
2017-01-31T06:41:20.334Z,4.45
2017-01-31T06:42:02.697Z,4.49
2017-01-31T06:42:43.212Z,4.44
2017-01-31T06:43:23.734Z,4.41
2017-01-31T06:44:05.808Z,4.49
2017-01-31T06:44:49.323Z,4.49
2017-01-31T06:45:30.303Z,4.41
2017-01-31T06:46:10.868Z,4.5
2017-01-31T06:46:51.400Z,4.41
2017-01-31T06:47:32.919Z,4.45
2017-01-31T06:48:17.846Z,4.49
2017-01-31T06:48:58.369Z,4.38
2017-01-31T06:49:39.706Z,4.44
2017-01-31T06:50:20.184Z,4.41
2017-01-31T06:51:03.416Z,4.45
2017-01-31T06:51:45.795Z,4.41
2017-01-31T06:52:27.142Z,4.49
2017-01-31T06:53:07.672Z,4.48
2017-01-31T06:53:48.798Z,4.44
2017-01-31T06:54:30.826Z,4.42
2017-01-31T06:55:11.371Z,4.49
2017-01-31T06:55:52.548Z,4.44
2017-01-31T06:56:35.539Z,4.45
2017-01-31T06:57:18.480Z,4.42
2017-01-31T06:57:59.022Z,4.44
2017-01-31T06:58:44.094Z,4.45
2017-01-31T06:59:27.305Z,4.5
2017-01-31T07:00:07.808Z,4.49
2017-01-31T07:00:48.808Z,4.49
2017-01-31T07:01:32.021Z,4.42
2017-01-31T07:02:12.502Z,4.49
2017-01-31T07:02:53.695Z,4.45
2017-01-31T07:03:34.991Z,4.45
2017-01-31T07:04:16.379Z,4.45
2017-01-31T07:05:03.468Z,4.5
2017-01-31T07:05:44.873Z,4.5
2017-01-31T07:06:25.504Z,4.48
2017-01-31T07:07:06.690Z,4.44
2017-01-31T07:07:50.812Z,4.48
2017-01-31T07:08:32.793Z,4.48
2017-01-31T07:09:13.295Z,4.55
2017-01-31T07:09:55.307Z,4.49
2017-01-31T07:10:35.814Z,4.45
2017-01-31T07:11:18.893Z,4.48
2017-01-31T07:12:04.112Z,4.52
2017-01-31T07:12:45.988Z,4.55
2017-01-31T07:13:27.282Z,4.58
2017-01-31T07:14:11.295Z,4.55
2017-01-31T07:14:58.416Z,4.58
2017-01-31T07:15:40.788Z,4.56
2017-01-31T07:16:21.358Z,4.56
2017-01-31T07:17:03.289Z,4.58
2017-01-31T07:17:44.301Z,4.52
2017-01-31T07:18:26.485Z,4.53
2017-01-31T07:19:07.616Z,4.56
2017-01-31T07:19:48.884Z,4.5
2017-01-31T07:20:29.363Z,4.56
2017-01-31T07:21:14.313Z,4.62
2017-01-31T07:21:55.488Z,4.48
2017-01-31T07:22:37.804Z,4.56
2017-01-31T07:23:18.303Z,4.53
2017-01-31T07:24:01.500Z,4.5
2017-01-31T07:24:42.072Z,4.59
2017-01-31T07:25:22.526Z,4.5
2017-01-31T07:26:03.976Z,4.52
2017-01-31T07:26:45.383Z,4.5
2017-01-31T07:27:29.383Z,4.6
2017-01-31T07:28:09.847Z,4.6
2017-01-31T07:28:50.380Z,4.59
2017-01-31T07:29:30.880Z,4.59
2017-01-31T07:30:11.376Z,4.55
2017-01-31T07:30:52.379Z,4.5
2017-01-31T07:31:32.886Z,4.59
2017-01-31T07:32:13.368Z,4.55
2017-01-31T07:32:53.838Z,4.59
2017-01-31T07:33:35.991Z,4.6
2017-01-31T07:34:17.301Z,4.71
2017-01-31T07:34:58.598Z,4.63
2017-01-31T07:35:40.025Z,4.58
2017-01-31T07:36:20.536Z,4.59
2017-01-31T07:37:01.047Z,4.63
2017-01-31T07:37:41.543Z,4.6
2017-01-31T07:38:22.069Z,4.63
2017-01-31T07:39:02.558Z,4.55
2017-01-31T07:39:43.097Z,4.62
2017-01-31T07:40:25.901Z,4.67
2017-01-31T07:41:06.385Z,4.6
2017-01-31T07:41:48.561Z,4.62
2017-01-31T07:42:29.071Z,4.56
2017-01-31T07:43:09.544Z,4.6
2017-01-31T07:43:50.079Z,4.59
2017-01-31T07:44:32.802Z,4.62
2017-01-31T07:45:14.232Z,4.59
2017-01-31T07:45:56.291Z,4.62
2017-01-31T07:46:38.484Z,4.56
2017-01-31T07:47:23.295Z,4.62
2017-01-31T07:48:03.796Z,4.62
2017-01-31T07:48:45.959Z,4.71
2017-01-31T07:49:27.998Z,4.59
2017-01-31T07:50:14.923Z,4.55
2017-01-31T07:50:55.395Z,4.63
2017-01-31T07:51:35.962Z,4.71
2017-01-31T07:52:17.214Z,4.63
2017-01-31T07:52:57.727Z,4.62
2017-01-31T07:53:40.916Z,4.56
2017-01-31T07:54:21.915Z,4.67
2017-01-31T07:55:03.904Z,4.6
2017-01-31T07:55:45.185Z,4.56
2017-01-31T07:56:26.710Z,4.59
2017-01-31T07:57:07.219Z,4.62
2017-01-31T07:57:49.236Z,4.58
2017-01-31T07:58:30.776Z,4.6
2017-01-31T07:59:11.837Z,4.62
2017-01-31T07:59:52.343Z,4.66
2017-01-31T08:00:33.893Z,4.62
2017-01-31T08:01:14.361Z,4.55
2017-01-31T08:01:54.900Z,4.63
2017-01-31T08:02:35.416Z,4.58
2017-01-31T08:03:15.924Z,4.62
2017-01-31T08:03:56.404Z,4.53
2017-01-31T08:04:37.560Z,4.59
2017-01-31T08:05:18.076Z,4.56
2017-01-31T08:05:58.632Z,4.59
2017-01-31T08:06:39.223Z,4.58
2017-01-31T08:07:20.471Z,4.62
2017-01-31T08:08:02.484Z,4.58
2017-01-31T08:08:42.982Z,4.59
2017-01-31T08:09:23.540Z,4.62
2017-01-31T08:10:04.019Z,4.56
2017-01-31T08:10:44.541Z,4.62
2017-01-31T08:11:25.013Z,4.59
2017-01-31T08:12:06.473Z,4.68
2017-01-31T08:12:46.988Z,4.74
2017-01-31T08:13:27.815Z,4.59
2017-01-31T08:14:08.608Z,4.62
2017-01-31T08:14:49.118Z,4.68
2017-01-31T08:15:29.619Z,4.62
2017-01-31T08:16:10.142Z,4.71
2017-01-31T08:16:50.644Z,4.71
2017-01-31T08:17:31.115Z,4.7
2017-01-31T08:18:11.645Z,4.63
2017-01-31T08:18:52.178Z,4.71
2017-01-31T08:19:32.679Z,4.7
2017-01-31T08:20:13.209Z,4.68
2017-01-31T08:20:53.731Z,4.7
2017-01-31T08:21:35.272Z,4.73
2017-01-31T08:22:16.363Z,4.6
2017-01-31T08:22:56.987Z,4.74
2017-01-31T08:23:37.527Z,4.67
2017-01-31T08:24:19.011Z,4.66
2017-01-31T08:25:00.404Z,4.68
2017-01-31T08:25:40.921Z,4.67
2017-01-31T08:26:21.452Z,4.75
2017-01-31T08:27:03.502Z,4.73
2017-01-31T08:27:44.515Z,4.68
2017-01-31T08:28:27.468Z,4.82
2017-01-31T08:29:08.899Z,4.7
2017-01-31T08:29:49.997Z,4.74
2017-01-31T08:30:31.041Z,4.7
2017-01-31T08:31:11.511Z,4.58
2017-01-31T08:31:52.051Z,4.66
2017-01-31T08:32:32.563Z,4.63
2017-01-31T08:33:14.791Z,4.7
2017-01-31T08:33:55.798Z,4.6
2017-01-31T08:34:38.287Z,4.66
2017-01-31T08:35:22.685Z,4.59
2017-01-31T08:36:08.321Z,4.6
2017-01-31T08:36:53.977Z,4.6
2017-01-31T08:37:38.145Z,4.6
2017-01-31T08:39:48.226Z,4.7
2017-01-31T08:40:47.028Z,4.71
2017-01-31T08:41:33.613Z,4.7
2017-01-31T08:42:15.177Z,4.6
2017-01-31T08:44:41.445Z,4.78
2017-01-31T08:46:42.402Z,4.78
2017-01-31T08:47:30.153Z,4.87
2017-01-31T08:48:13.583Z,4.93
2017-01-31T08:48:55.984Z,4.86
2017-01-31T08:49:42.414Z,4.9
2017-01-31T08:50:27.287Z,4.93
2017-01-31T08:51:09.397Z,4.93
2017-01-31T08:51:55.071Z,4.9
2017-01-31T08:52:48.738Z,4.94
2017-01-31T08:54:27.025Z,4.84
2017-01-31T08:55:16.319Z,4.96
2017-01-31T08:56:07.073Z,4.94
2017-01-31T08:56:55.647Z,4.94
2017-01-31T08:57:37.128Z,5
2017-01-31T08:58:18.612Z,4.94
2017-01-31T08:58:59.086Z,5.04
2017-01-31T08:59:39.568Z,4.96
2017-01-31T09:00:20.099Z,4.97
2017-01-31T09:01:10.603Z,4.99
2017-01-31T09:01:57.180Z,5.02
2017-01-31T09:02:43.442Z,4.9
2017-01-31T09:03:24.166Z,4.99
2017-01-31T09:04:04.687Z,4.97
2017-01-31T09:04:45.150Z,5
2017-01-31T09:05:25.664Z,4.93
2017-01-31T09:06:06.170Z,5.02
2017-01-31T09:06:46.717Z,4.99
2017-01-31T09:07:27.213Z,5
2017-01-31T09:08:07.687Z,4.96
2017-01-31T09:08:48.173Z,5.02
2017-01-31T09:09:28.670Z,4.97
2017-01-31T09:10:09.149Z,4.96
2017-01-31T09:10:52.413Z,4.96
2017-01-31T09:11:38.714Z,5.02
2017-01-31T09:12:24.969Z,5.05
2017-01-31T09:13:09.502Z,4.94
2017-01-31T09:14:00.110Z,4.96
2017-01-31T09:14:45.016Z,5
2017-01-31T09:15:28.551Z,5.07
2017-01-31T09:16:09.144Z,4.99
2017-01-31T09:16:56.340Z,4.97
2017-01-31T09:17:39.893Z,5.04
2017-01-31T09:18:24.111Z,5.08
2017-01-31T09:19:05.612Z,4.96
2017-01-31T09:19:54.439Z,4.92
2017-01-31T09:20:39.471Z,4.99
2017-01-31T09:21:21.870Z,5
2017-01-31T09:22:04.945Z,5.1
2017-01-31T09:22:46.461Z,4.97
2017-01-31T09:23:28.821Z,5.05
2017-01-31T09:24:09.393Z,4.99
2017-01-31T09:24:52.534Z,5.05
2017-01-31T09:25:36.523Z,4.97
2017-01-31T09:26:17.088Z,5.14
2017-01-31T09:26:59.739Z,5.05
2017-01-31T09:27:42.765Z,5.07